createdAt,value
2019-03-30T00:00:25.884Z,1020.78
2019-03-30T00:01:25.857Z,1020.71
2019-03-30T00:02:25.839Z,1020.72
2019-03-30T00:03:25.835Z,1020.66
2019-03-30T00:04:25.832Z,1020.66
2019-03-30T00:05:25.829Z,1020.63
2019-03-30T00:06:25.797Z,1020.68
2019-03-30T00:07:25.795Z,1020.64
2019-03-30T00:08:25.771Z,1020.63
2019-03-30T00:09:25.767Z,1020.62
2019-03-30T00:10:25.789Z,1020.61
2019-03-30T00:11:25.738Z,1020.59
2019-03-30T00:12:25.728Z,1020.55
2019-03-30T00:13:25.717Z,1020.60
2019-03-30T00:14:25.718Z,1020.54
2019-03-30T00:15:25.780Z,1020.57
2019-03-30T00:16:25.695Z,1020.57
2019-03-30T00:17:25.671Z,1020.58
2019-03-30T00:18:25.667Z,1020.53
2019-03-30T00:19:34.744Z,1020.59
2019-03-30T00:20:26.668Z,1020.56
2019-03-30T00:21:25.633Z,1020.49
2019-03-30T00:22:25.628Z,1020.55
2019-03-30T00:23:25.608Z,1020.53
2019-03-30T00:24:25.619Z,1020.54
2019-03-30T00:25:25.620Z,1020.54
2019-03-30T00:26:25.590Z,1020.50
2019-03-30T00:27:25.562Z,1020.55
2019-03-30T00:28:25.561Z,1020.52
2019-03-30T00:29:25.537Z,1020.51
2019-03-30T00:30:25.571Z,1020.47
2019-03-30T00:31:25.518Z,1020.48
2019-03-30T00:32:25.506Z,1020.50
2019-03-30T00:33:25.496Z,1020.43
2019-03-30T00:34:25.511Z,1020.42
2019-03-30T00:35:25.481Z,1020.43
2019-03-30T00:36:25.484Z,1020.41
2019-03-30T00:37:25.454Z,1020.37
2019-03-30T00:38:25.435Z,1020.39
2019-03-30T00:39:25.429Z,1020.35
2019-03-30T00:40:25.432Z,1020.38
2019-03-30T00:41:25.439Z,1020.34
2019-03-30T00:42:25.395Z,1020.38
2019-03-30T00:43:25.399Z,1020.32
2019-03-30T00:44:25.375Z,1020.35
2019-03-30T00:45:25.364Z,1020.33
2019-03-30T00:46:25.371Z,1020.35
2019-03-30T00:47:25.347Z,1020.34
2019-03-30T00:48:25.330Z,1020.33
2019-03-30T00:49:25.317Z,1020.34
2019-03-30T00:50:25.304Z,1020.34
2019-03-30T00:51:25.313Z,1020.29
2019-03-30T00:52:25.298Z,1020.34
2019-03-30T00:53:25.274Z,1020.34
2019-03-30T00:54:25.271Z,1020.34
2019-03-30T00:55:25.256Z,1020.29
2019-03-30T00:56:25.257Z,1020.31
2019-03-30T00:57:25.243Z,1020.32
2019-03-30T00:58:25.782Z,1020.29
2019-03-30T00:59:25.207Z,1020.26
2019-03-30T01:00:25.213Z,1020.26
2019-03-30T01:01:25.219Z,1020.28
2019-03-30T01:02:25.170Z,1020.23
2019-03-30T01:03:25.163Z,1020.23
2019-03-30T01:04:25.155Z,1020.27
2019-03-30T01:05:25.149Z,1020.23
2019-03-30T01:06:25.167Z,1020.23
2019-03-30T01:07:25.116Z,1020.21
2019-03-30T01:08:25.108Z,1020.21
2019-03-30T01:09:25.098Z,1020.18
2019-03-30T01:10:25.086Z,1020.22
2019-03-30T01:11:25.076Z,1020.20
2019-03-30T01:12:25.102Z,1020.18
2019-03-30T01:13:25.053Z,1020.16
2019-03-30T01:14:25.048Z,1020.18
2019-03-30T01:15:25.030Z,1020.16
2019-03-30T01:16:25.020Z,1020.15
2019-03-30T01:17:25.019Z,1020.15
2019-03-30T01:18:25.003Z,1020.14
2019-03-30T01:19:24.989Z,1020.09
2019-03-30T01:20:24.977Z,1020.15
2019-03-30T01:21:24.965Z,1020.15
2019-03-30T01:22:24.977Z,1020.16
2019-03-30T01:23:24.936Z,1020.16
2019-03-30T01:24:24.941Z,1020.17
2019-03-30T01:25:24.921Z,1020.21
2019-03-30T01:26:24.906Z,1020.14
2019-03-30T01:27:24.922Z,1020.19
2019-03-30T01:28:24.890Z,1020.17
2019-03-30T01:29:24.873Z,1020.16
2019-03-30T01:30:24.904Z,1020.23
2019-03-30T01:31:24.895Z,1020.16
2019-03-30T01:32:24.857Z,1020.16
2019-03-30T01:33:24.835Z,1020.18
2019-03-30T01:34:24.829Z,1020.17
2019-03-30T01:35:24.943Z,1020.13
2019-03-30T01:36:24.803Z,1020.16
2019-03-30T01:37:24.811Z,1020.21
2019-03-30T01:38:24.813Z,1020.19
2019-03-30T01:39:24.764Z,1020.18
2019-03-30T01:40:24.752Z,1020.17
2019-03-30T01:41:24.764Z,1020.13
2019-03-30T01:42:24.799Z,1020.13
2019-03-30T01:43:24.716Z,1020.13
2019-03-30T01:44:24.709Z,1020.13
2019-03-30T01:45:24.716Z,1020.12
2019-03-30T01:46:24.683Z,1020.10
2019-03-30T01:47:24.699Z,1020.08
2019-03-30T01:48:24.662Z,1020.08
2019-03-30T01:49:24.651Z,1020.04
2019-03-30T01:50:24.660Z,1020.07
2019-03-30T01:51:24.636Z,1020.06
2019-03-30T01:52:24.653Z,1020.05
2019-03-30T01:53:24.663Z,1020.09
2019-03-30T01:54:24.604Z,1020.06
2019-03-30T01:55:24.583Z,1020.07
2019-03-30T01:56:24.578Z,1020.09
2019-03-30T01:57:24.616Z,1020.09
2019-03-30T01:58:24.552Z,1020.09
2019-03-30T01:59:24.848Z,1020.11
2019-03-30T02:00:24.532Z,1020.08
2019-03-30T02:01:24.521Z,1020.09
2019-03-30T02:02:24.525Z,1020.10
2019-03-30T02:03:24.523Z,1020.08
2019-03-30T02:04:24.489Z,1020.06
2019-03-30T02:05:24.474Z,1020.05
2019-03-30T02:06:24.476Z,1020.08
2019-03-30T02:07:24.460Z,1020.06
2019-03-30T02:08:24.472Z,1020.03
2019-03-30T02:09:24.479Z,1020.00
2019-03-30T02:10:24.423Z,1020.00
2019-03-30T02:11:24.414Z,1020.03
2019-03-30T02:12:24.404Z,1019.99
2019-03-30T02:13:24.407Z,1020.00
2019-03-30T02:14:24.394Z,1019.99
2019-03-30T02:15:24.386Z,1019.95
2019-03-30T02:16:24.359Z,1019.98
2019-03-30T02:17:24.349Z,1019.95
2019-03-30T02:18:24.356Z,1019.89
2019-03-30T02:19:24.323Z,1019.94
2019-03-30T02:20:30.694Z,1019.90
2019-03-30T02:21:25.295Z,1019.92
2019-03-30T02:22:24.290Z,1019.94
2019-03-30T02:23:24.299Z,1019.94
2019-03-30T02:24:24.268Z,1019.91
2019-03-30T02:25:24.267Z,1019.95
2019-03-30T02:26:24.252Z,1019.91
2019-03-30T02:27:24.234Z,1019.89
2019-03-30T02:28:24.234Z,1019.89
2019-03-30T02:29:24.207Z,1019.89
2019-03-30T02:30:24.202Z,1019.90
2019-03-30T02:31:24.188Z,1019.86
2019-03-30T02:32:24.216Z,1019.85
2019-03-30T02:33:24.195Z,1019.82
2019-03-30T02:34:24.153Z,1019.82
2019-03-30T02:35:26.458Z,1019.86
2019-03-30T02:36:24.146Z,1019.81
2019-03-30T02:37:24.121Z,1019.80
2019-03-30T02:38:24.143Z,1019.77
2019-03-30T02:39:24.108Z,1019.79
2019-03-30T02:40:24.091Z,1019.79
2019-03-30T02:41:24.091Z,1019.76
2019-03-30T02:42:24.079Z,1019.75
2019-03-30T02:43:24.092Z,1019.79
2019-03-30T02:44:24.098Z,1019.80
2019-03-30T02:45:24.040Z,1019.79
2019-03-30T02:46:24.038Z,1019.79
2019-03-30T02:47:24.024Z,1019.82
2019-03-30T02:48:24.018Z,1019.79
2019-03-30T02:49:23.995Z,1019.80
2019-03-30T02:50:23.982Z,1019.84
2019-03-30T02:51:23.978Z,1019.79
2019-03-30T02:52:23.968Z,1019.77
2019-03-30T02:53:23.969Z,1019.77
2019-03-30T02:54:23.942Z,1019.78
2019-03-30T02:55:23.930Z,1019.77
2019-03-30T02:56:23.914Z,1019.75
2019-03-30T02:57:23.902Z,1019.75
2019-03-30T02:58:23.907Z,1019.73
2019-03-30T02:59:24.023Z,1019.75
2019-03-30T03:00:23.868Z,1019.74
2019-03-30T03:01:23.859Z,1019.75
2019-03-30T03:02:23.848Z,1019.71
2019-03-30T03:03:23.868Z,1019.74
2019-03-30T03:04:23.824Z,1019.68
2019-03-30T03:05:23.823Z,1019.75
2019-03-30T03:06:23.801Z,1019.74
2019-03-30T03:07:23.787Z,1019.66
2019-03-30T03:08:23.813Z,1019.71
2019-03-30T03:09:23.777Z,1019.67
2019-03-30T03:10:23.773Z,1019.68
2019-03-30T03:11:23.768Z,1019.69
2019-03-30T03:12:23.735Z,1019.61
2019-03-30T03:13:23.751Z,1019.64
2019-03-30T03:14:23.712Z,1019.66
2019-03-30T03:15:23.721Z,1019.62
2019-03-30T03:16:27.118Z,1019.61
2019-03-30T03:17:23.697Z,1019.58
2019-03-30T03:18:23.724Z,1019.57
2019-03-30T03:19:23.669Z,1019.57
2019-03-30T03:20:23.661Z,1019.56
2019-03-30T03:21:23.641Z,1019.56
2019-03-30T03:22:23.622Z,1019.49
2019-03-30T03:23:23.666Z,1019.53
2019-03-30T03:24:23.599Z,1019.48
2019-03-30T03:25:23.595Z,1019.47
2019-03-30T03:26:23.588Z,1019.48
2019-03-30T03:27:23.582Z,1019.44
2019-03-30T03:28:23.579Z,1019.43
2019-03-30T03:29:23.544Z,1019.40
2019-03-30T03:30:23.541Z,1019.44
2019-03-30T03:31:23.531Z,1019.44
2019-03-30T03:32:23.512Z,1019.43
2019-03-30T03:33:23.520Z,1019.39
2019-03-30T03:34:23.524Z,1019.42
2019-03-30T03:35:23.484Z,1019.39
2019-03-30T03:36:23.468Z,1019.41
2019-03-30T03:37:23.459Z,1019.36
2019-03-30T03:38:23.459Z,1019.39
2019-03-30T03:39:23.458Z,1019.37
2019-03-30T03:40:23.433Z,1019.37
2019-03-30T03:41:23.412Z,1019.35
2019-03-30T03:42:23.417Z,1019.38
2019-03-30T03:43:23.406Z,1019.36
2019-03-30T03:44:23.403Z,1019.33
2019-03-30T03:45:23.368Z,1019.34
2019-03-30T03:46:23.356Z,1019.32
2019-03-30T03:47:23.345Z,1019.31
2019-03-30T03:48:23.343Z,1019.28
2019-03-30T03:49:23.349Z,1019.29
2019-03-30T03:50:23.319Z,1019.32
2019-03-30T03:51:25.984Z,1019.27
2019-03-30T03:52:23.291Z,1019.34
2019-03-30T03:53:23.277Z,1019.27
2019-03-30T03:54:23.295Z,1019.30
2019-03-30T03:55:23.258Z,1019.30
2019-03-30T03:56:23.265Z,1019.30
2019-03-30T03:57:23.236Z,1019.25
2019-03-30T03:58:23.224Z,1019.27
2019-03-30T03:59:23.242Z,1019.24
2019-03-30T04:00:23.207Z,1019.27
2019-03-30T04:01:23.208Z,1019.24
2019-03-30T04:02:23.174Z,1019.25
2019-03-30T04:03:23.173Z,1019.22
2019-03-30T04:04:23.189Z,1019.24
2019-03-30T04:05:23.148Z,1019.23
2019-03-30T04:06:23.137Z,1019.24
2019-03-30T04:07:23.147Z,1019.21
2019-03-30T04:08:23.121Z,1019.23
2019-03-30T04:09:23.122Z,1019.27
2019-03-30T04:10:23.094Z,1019.25
2019-03-30T04:11:23.081Z,1019.27
2019-03-30T04:12:23.075Z,1019.27
2019-03-30T04:13:23.088Z,1019.28
2019-03-30T04:14:23.092Z,1019.28
2019-03-30T04:15:23.045Z,1019.26
2019-03-30T04:16:23.030Z,1019.22
2019-03-30T04:17:23.022Z,1019.22
2019-03-30T04:18:23.012Z,1019.27
2019-03-30T04:19:23.053Z,1019.26
2019-03-30T04:20:22.983Z,1019.23
2019-03-30T04:21:43.898Z,1019.27
2019-03-30T04:22:23.962Z,1019.19
2019-03-30T04:23:22.961Z,1019.23
2019-03-30T04:24:22.963Z,1019.19
2019-03-30T04:25:22.935Z,1019.17
2019-03-30T04:26:22.913Z,1019.15
2019-03-30T04:27:22.919Z,1019.13
2019-03-30T04:28:22.895Z,1019.13
2019-03-30T04:29:22.901Z,1019.13
2019-03-30T04:30:22.895Z,1019.13
2019-03-30T04:31:22.856Z,1019.10
2019-03-30T04:32:22.839Z,1019.10
2019-03-30T04:33:22.841Z,1019.09
2019-03-30T04:34:22.861Z,1019.08
2019-03-30T04:35:22.826Z,1019.10
2019-03-30T04:36:22.799Z,1019.04
2019-03-30T04:37:22.805Z,1019.05
2019-03-30T04:38:22.784Z,1019.04
2019-03-30T04:39:23.095Z,1019.03
2019-03-30T04:40:22.773Z,1019.05
2019-03-30T04:41:22.741Z,1019.07
2019-03-30T04:42:22.732Z,1019.04
2019-03-30T04:43:22.731Z,1019.08
2019-03-30T04:44:22.739Z,1019.01
2019-03-30T04:45:22.701Z,1019.03
2019-03-30T04:46:22.698Z,1019.05
2019-03-30T04:47:22.704Z,1019.13
2019-03-30T04:48:22.662Z,1019.04
2019-03-30T04:49:22.654Z,1019.07
2019-03-30T04:50:22.664Z,1019.04
2019-03-30T04:51:22.631Z,1019.10
2019-03-30T04:52:22.627Z,1019.04
2019-03-30T04:53:22.615Z,1019.05
2019-03-30T04:54:22.598Z,1019.03
2019-03-30T04:55:22.604Z,1019.00
2019-03-30T04:56:22.575Z,1019.03
2019-03-30T04:57:23.104Z,1018.98
2019-03-30T04:58:22.574Z,1019.04
2019-03-30T04:59:22.543Z,1019.00
2019-03-30T05:00:22.554Z,1019.01
2019-03-30T05:01:22.528Z,1019.05
2019-03-30T05:02:22.511Z,1019.02
2019-03-30T05:03:22.521Z,1018.98
2019-03-30T05:04:22.490Z,1018.95
2019-03-30T05:05:22.496Z,1018.95
2019-03-30T05:06:22.463Z,1018.94
2019-03-30T05:07:22.464Z,1018.91
2019-03-30T05:08:22.444Z,1018.96
2019-03-30T05:09:22.427Z,1018.92
2019-03-30T05:10:22.434Z,1018.92
2019-03-30T05:11:22.401Z,1018.91
2019-03-30T05:12:22.397Z,1018.92
2019-03-30T05:13:22.383Z,1018.92
2019-03-30T05:14:22.374Z,1018.89
2019-03-30T05:15:22.396Z,1018.93
2019-03-30T05:16:22.350Z,1018.88
2019-03-30T05:17:22.335Z,1018.91
2019-03-30T05:18:22.338Z,1018.91
2019-03-30T05:19:22.324Z,1018.91
2019-03-30T05:20:22.319Z,1018.89
2019-03-30T05:21:22.294Z,1018.88
2019-03-30T05:22:22.300Z,1018.85
2019-03-30T05:23:22.276Z,1018.85
2019-03-30T05:24:22.257Z,1018.84
2019-03-30T05:25:22.265Z,1018.82
2019-03-30T05:26:22.237Z,1018.85
2019-03-30T05:27:22.220Z,1018.86
2019-03-30T05:28:22.212Z,1018.84
2019-03-30T05:29:22.213Z,1018.88
2019-03-30T05:30:22.211Z,1018.88
2019-03-30T05:31:22.188Z,1018.90
2019-03-30T05:32:22.172Z,1018.93
2019-03-30T05:33:22.158Z,1018.89
2019-03-30T05:34:22.144Z,1018.84
2019-03-30T05:35:22.173Z,1018.88
2019-03-30T05:36:22.142Z,1018.83
2019-03-30T05:37:22.106Z,1018.85
2019-03-30T05:38:22.100Z,1018.86
2019-03-30T05:39:22.090Z,1018.91
2019-03-30T05:40:22.078Z,1018.87
2019-03-30T05:41:22.080Z,1018.89
2019-03-30T05:42:22.060Z,1018.88
2019-03-30T05:43:22.042Z,1018.90
2019-03-30T05:44:22.040Z,1018.87
2019-03-30T05:45:22.016Z,1018.87
2019-03-30T05:46:22.024Z,1018.86
2019-03-30T05:47:22.002Z,1018.82
2019-03-30T05:48:22.006Z,1018.85
2019-03-30T05:49:21.969Z,1018.83
2019-03-30T05:50:21.966Z,1018.89
2019-03-30T05:51:21.979Z,1018.87
2019-03-30T05:52:26.858Z,1018.85
2019-03-30T05:53:22.945Z,1018.88
2019-03-30T05:54:21.912Z,1018.90
2019-03-30T05:55:21.909Z,1018.83
2019-03-30T05:56:21.944Z,1018.83
2019-03-30T05:57:21.889Z,1018.85
2019-03-30T05:58:21.874Z,1018.82
2019-03-30T05:59:21.876Z,1018.83
2019-03-30T06:00:21.852Z,1018.84
2019-03-30T06:01:21.887Z,1018.81
2019-03-30T06:02:21.833Z,1018.82
2019-03-30T06:03:21.814Z,1018.81
2019-03-30T06:04:21.840Z,1018.81
2019-03-30T06:05:21.793Z,1018.77
2019-03-30T06:06:21.809Z,1018.77
2019-03-30T06:07:21.773Z,1018.77
2019-03-30T06:08:21.792Z,1018.79
2019-03-30T06:09:21.750Z,1018.78
2019-03-30T06:10:21.737Z,1018.80
2019-03-30T06:11:21.784Z,1018.75
2019-03-30T06:12:21.718Z,1018.77
2019-03-30T06:13:21.709Z,1018.76
2019-03-30T06:14:21.712Z,1018.78
2019-03-30T06:15:21.682Z,1018.81
2019-03-30T06:16:21.695Z,1018.72
2019-03-30T06:17:21.718Z,1018.79
2019-03-30T06:18:21.892Z,1018.77
2019-03-30T06:19:21.653Z,1018.76
2019-03-30T06:20:21.629Z,1018.77
2019-03-30T06:21:21.650Z,1018.74
2019-03-30T06:22:21.611Z,1018.73
2019-03-30T06:23:21.799Z,1018.71
2019-03-30T06:24:21.577Z,1018.76
2019-03-30T06:25:21.604Z,1018.70
2019-03-30T06:26:21.628Z,1018.73
2019-03-30T06:27:21.558Z,1018.72
2019-03-30T06:28:21.576Z,1018.70
2019-03-30T06:29:21.527Z,1018.73
2019-03-30T06:30:21.525Z,1018.71
2019-03-30T06:31:21.531Z,1018.71
2019-03-30T06:32:21.495Z,1018.71
2019-03-30T06:33:21.488Z,1018.72
2019-03-30T06:34:21.475Z,1018.74
2019-03-30T06:35:21.462Z,1018.72
2019-03-30T06:36:22.046Z,1018.74
2019-03-30T06:37:21.447Z,1018.69
2019-03-30T06:38:21.439Z,1018.70
2019-03-30T06:39:21.431Z,1018.71
2019-03-30T06:40:21.407Z,1018.71
2019-03-30T06:41:21.466Z,1018.69
2019-03-30T06:42:21.389Z,1018.70
2019-03-30T06:43:21.377Z,1018.67
2019-03-30T06:44:21.381Z,1018.68
2019-03-30T06:45:21.359Z,1018.63
2019-03-30T06:46:21.347Z,1018.59
2019-03-30T06:47:21.369Z,1018.59
2019-03-30T06:48:21.401Z,1018.57
2019-03-30T06:49:21.393Z,1018.56
2019-03-30T06:50:21.304Z,1018.57
2019-03-30T06:51:21.286Z,1018.55
2019-03-30T06:52:21.321Z,1018.50
2019-03-30T06:53:21.262Z,1018.55
2019-03-30T06:54:21.249Z,1018.56
2019-03-30T06:55:21.248Z,1018.46
2019-03-30T06:56:21.247Z,1018.44
2019-03-30T06:57:21.260Z,1018.49
2019-03-30T06:58:21.215Z,1018.47
2019-03-30T06:59:21.197Z,1018.47
2019-03-30T07:00:21.204Z,1018.47
2019-03-30T07:01:21.186Z,1018.48
2019-03-30T07:02:21.194Z,1018.43
2019-03-30T07:03:21.153Z,1018.45
2019-03-30T07:04:21.143Z,1018.44
2019-03-30T07:05:21.132Z,1018.43
2019-03-30T07:06:21.144Z,1018.39
2019-03-30T07:07:21.142Z,1018.39
2019-03-30T07:08:21.104Z,1018.42
2019-03-30T07:09:21.107Z,1018.46
2019-03-30T07:10:21.075Z,1018.44
2019-03-30T07:11:21.599Z,1018.43
2019-03-30T07:12:21.075Z,1018.41
2019-03-30T07:13:21.050Z,1018.42
2019-03-30T07:14:21.080Z,1018.40
2019-03-30T07:15:21.050Z,1018.41
2019-03-30T07:16:21.014Z,1018.40
2019-03-30T07:17:21.115Z,1018.42
2019-03-30T07:18:20.996Z,1018.40
2019-03-30T07:19:21.066Z,1018.41
2019-03-30T07:20:20.976Z,1018.43
2019-03-30T07:21:20.971Z,1018.41
2019-03-30T07:22:21.012Z,1018.42
2019-03-30T07:23:20.956Z,1018.47
2019-03-30T07:24:20.958Z,1018.41
2019-03-30T07:25:20.947Z,1018.45
2019-03-30T07:26:20.948Z,1018.47
2019-03-30T07:27:20.904Z,1018.40
2019-03-30T07:28:20.890Z,1018.45
2019-03-30T07:29:20.917Z,1018.44
2019-03-30T07:30:20.864Z,1018.44
2019-03-30T07:31:20.879Z,1018.47
2019-03-30T07:32:20.854Z,1018.48
2019-03-30T07:33:20.823Z,1018.47
2019-03-30T07:34:20.843Z,1018.50
2019-03-30T07:35:20.806Z,1018.46
2019-03-30T07:36:20.808Z,1018.46
2019-03-30T07:37:20.823Z,1018.48
2019-03-30T07:38:20.779Z,1018.49
2019-03-30T07:39:20.784Z,1018.48
2019-03-30T07:40:20.811Z,1018.50
2019-03-30T07:41:20.748Z,1018.51
2019-03-30T07:42:20.783Z,1018.53
2019-03-30T07:43:20.757Z,1018.49
2019-03-30T07:44:20.778Z,1018.56
2019-03-30T07:45:20.727Z,1018.52
2019-03-30T07:46:20.677Z,1018.51
2019-03-30T07:47:20.688Z,1018.50
2019-03-30T07:48:20.677Z,1018.49
2019-03-30T07:49:20.763Z,1018.50
2019-03-30T07:50:20.641Z,1018.47
2019-03-30T07:51:20.630Z,1018.45
2019-03-30T07:52:20.640Z,1018.48
2019-03-30T07:53:26.544Z,1018.46
2019-03-30T07:54:21.672Z,1018.45
2019-03-30T07:55:20.578Z,1018.42
2019-03-30T07:56:20.568Z,1018.42
2019-03-30T07:57:20.688Z,1018.43
2019-03-30T07:58:20.561Z,1018.44
2019-03-30T07:59:20.559Z,1018.45
2019-03-30T08:00:20.534Z,1018.46
2019-03-30T08:01:20.518Z,1018.37
2019-03-30T08:02:20.520Z,1018.42
2019-03-30T08:03:20.503Z,1018.44
2019-03-30T08:04:20.495Z,1018.42
2019-03-30T08:05:20.490Z,1018.45
2019-03-30T08:06:20.463Z,1018.42
2019-03-30T08:07:20.449Z,1018.36
2019-03-30T08:08:20.454Z,1018.32
2019-03-30T08:09:20.435Z,1018.35
2019-03-30T08:10:20.417Z,1018.34
2019-03-30T08:11:20.399Z,1018.38
2019-03-30T08:12:20.400Z,1018.36
2019-03-30T08:13:20.407Z,1018.35
2019-03-30T08:14:20.367Z,1018.36
2019-03-30T08:15:20.376Z,1018.37
2019-03-30T08:16:20.338Z,1018.37
2019-03-30T08:17:20.332Z,1018.37
2019-03-30T08:18:20.335Z,1018.29
2019-03-30T08:19:21.846Z,1018.32
2019-03-30T08:20:20.303Z,1018.32
2019-03-30T08:21:20.318Z,1018.29
2019-03-30T08:22:20.277Z,1018.24
2019-03-30T08:23:20.299Z,1018.30
2019-03-30T08:24:20.249Z,1018.30
2019-03-30T08:25:20.272Z,1018.25
2019-03-30T08:26:20.308Z,1018.27
2019-03-30T08:27:20.277Z,1018.19
2019-03-30T08:28:20.210Z,1018.25
2019-03-30T08:29:20.235Z,1018.21
2019-03-30T08:30:20.189Z,1018.19
2019-03-30T08:31:20.176Z,1018.18
2019-03-30T08:32:20.167Z,1018.20
2019-03-30T08:33:20.152Z,1018.24
2019-03-30T08:34:20.169Z,1018.21
2019-03-30T08:35:20.168Z,1018.22
2019-03-30T08:36:20.113Z,1018.18
2019-03-30T08:37:20.131Z,1018.23
2019-03-30T08:38:20.111Z,1018.20
2019-03-30T08:39:20.103Z,1018.12
2019-03-30T08:40:20.070Z,1018.12
2019-03-30T08:41:20.144Z,1018.11
2019-03-30T08:42:20.114Z,1018.11
2019-03-30T08:43:20.049Z,1018.12
2019-03-30T08:44:20.066Z,1018.11
2019-03-30T08:45:20.117Z,1018.09
2019-03-30T08:46:20.066Z,1018.10
2019-03-30T08:47:19.999Z,1018.10
2019-03-30T08:48:21.120Z,1018.10
2019-03-30T08:49:20.187Z,1018.06
2019-03-30T08:50:19.966Z,1018.05
2019-03-30T08:51:20.887Z,1018.01
2019-03-30T08:52:20.049Z,1018.04
2019-03-30T08:53:19.927Z,1018.03
2019-03-30T08:54:19.926Z,1018.01
2019-03-30T08:55:19.931Z,1018.03
2019-03-30T08:56:19.908Z,1017.96
2019-03-30T08:57:20.017Z,1018.00
2019-03-30T08:58:19.870Z,1018.02
2019-03-30T08:59:19.876Z,1017.94
2019-03-30T09:00:19.882Z,1017.98
2019-03-30T09:01:19.849Z,1017.92
2019-03-30T09:02:19.895Z,1017.98
2019-03-30T09:03:19.822Z,1017.97
2019-03-30T09:04:19.816Z,1017.92
2019-03-30T09:05:19.813Z,1017.98
2019-03-30T09:06:19.803Z,1017.93
2019-03-30T09:07:19.808Z,1017.94
2019-03-30T09:08:19.766Z,1017.93
2019-03-30T09:09:19.759Z,1017.94
2019-03-30T09:10:19.763Z,1017.80
2019-03-30T09:11:19.733Z,1017.83
2019-03-30T09:12:19.747Z,1017.78
2019-03-30T09:13:19.708Z,1017.79
2019-03-30T09:14:19.694Z,1017.75
2019-03-30T09:15:19.723Z,1017.79
2019-03-30T09:16:19.701Z,1017.77
2019-03-30T09:17:19.670Z,1017.81
2019-03-30T09:18:19.654Z,1017.83
2019-03-30T09:19:19.650Z,1017.81
2019-03-30T09:20:19.656Z,1017.77
2019-03-30T09:21:19.769Z,1017.70
2019-03-30T09:22:19.613Z,1017.68
2019-03-30T09:23:19.604Z,1017.70
2019-03-30T09:24:19.580Z,1017.70
2019-03-30T09:25:19.608Z,1017.66
2019-03-30T09:26:19.560Z,1017.65
2019-03-30T09:27:19.546Z,1017.63
2019-03-30T09:28:19.567Z,1017.64
2019-03-30T09:29:19.531Z,1017.65
2019-03-30T09:30:19.534Z,1017.65
2019-03-30T09:31:19.526Z,1017.62
2019-03-30T09:32:19.500Z,1017.60
2019-03-30T09:33:19.496Z,1017.62
2019-03-30T09:34:19.499Z,1017.60
2019-03-30T09:35:19.486Z,1017.55
2019-03-30T09:36:19.481Z,1017.57
2019-03-30T09:37:19.441Z,1017.50
2019-03-30T09:38:19.443Z,1017.52
2019-03-30T09:39:19.619Z,1017.50
2019-03-30T09:40:19.418Z,1017.53
2019-03-30T09:41:19.484Z,1017.54
2019-03-30T09:42:19.389Z,1017.49
2019-03-30T09:43:19.378Z,1017.53
2019-03-30T09:44:19.379Z,1017.49
2019-03-30T09:45:19.355Z,1017.43
2019-03-30T09:46:19.376Z,1017.47
2019-03-30T09:47:19.331Z,1017.48
2019-03-30T09:48:19.314Z,1017.45
2019-03-30T09:49:19.307Z,1017.47
2019-03-30T09:50:19.310Z,1017.45
2019-03-30T09:51:19.354Z,1017.39
2019-03-30T09:52:19.278Z,1017.38
2019-03-30T09:53:19.257Z,1017.36
2019-03-30T09:54:23.971Z,1017.34
2019-03-30T09:55:20.270Z,1017.36
2019-03-30T09:56:19.257Z,1017.34
2019-03-30T09:57:19.215Z,1017.33
2019-03-30T09:58:19.243Z,1017.35
2019-03-30T09:59:19.191Z,1017.32
2019-03-30T10:00:19.181Z,1017.32
2019-03-30T10:01:19.200Z,1017.31
2019-03-30T10:02:19.179Z,1017.27
2019-03-30T10:03:19.180Z,1017.26
2019-03-30T10:04:19.132Z,1017.31
2019-03-30T10:05:19.126Z,1017.30
2019-03-30T10:06:19.132Z,1017.29
2019-03-30T10:07:19.115Z,1017.30
2019-03-30T10:08:19.102Z,1017.27
2019-03-30T10:09:19.079Z,1017.23
2019-03-30T10:10:19.066Z,1017.26
2019-03-30T10:11:19.406Z,1017.20
2019-03-30T10:12:19.052Z,1017.24
2019-03-30T10:13:19.053Z,1017.19
2019-03-30T10:14:19.061Z,1017.20
2019-03-30T10:15:19.077Z,1017.16
2019-03-30T10:16:19.030Z,1017.16
2019-03-30T10:17:18.989Z,1017.13
2019-03-30T10:18:19.019Z,1017.14
2019-03-30T10:19:18.975Z,1017.20
2019-03-30T10:20:18.979Z,1017.32
2019-03-30T10:21:18.975Z,1017.37
2019-03-30T10:22:18.927Z,1017.37
2019-03-30T10:23:18.934Z,1017.41
2019-03-30T10:24:18.917Z,1017.38
2019-03-30T10:25:18.929Z,1017.29
2019-03-30T10:26:18.926Z,1017.41
2019-03-30T10:27:18.907Z,1017.39
2019-03-30T10:28:18.882Z,1017.38
2019-03-30T10:29:18.864Z,1017.34
2019-03-30T10:30:18.852Z,1017.39
2019-03-30T10:31:18.865Z,1017.38
2019-03-30T10:32:18.830Z,1017.38
2019-03-30T10:33:18.815Z,1017.28
2019-03-30T10:34:18.806Z,1017.35
2019-03-30T10:35:18.800Z,1017.29
2019-03-30T10:36:18.803Z,1017.14
2019-03-30T10:37:18.785Z,1017.00
2019-03-30T10:38:18.764Z,1016.96
2019-03-30T10:39:18.764Z,1016.93
2019-03-30T10:40:20.908Z,1017.04
2019-03-30T10:41:18.767Z,1017.01
2019-03-30T10:42:18.738Z,1017.05
2019-03-30T10:43:18.718Z,1017.11
2019-03-30T10:44:18.700Z,1017.14
2019-03-30T10:45:18.693Z,1017.07
2019-03-30T10:46:18.698Z,1017.14
2019-03-30T10:47:18.669Z,1017.15
2019-03-30T10:48:18.675Z,1017.12
2019-03-30T10:49:18.649Z,1017.13
2019-03-30T10:50:18.656Z,1017.10
2019-03-30T10:51:18.653Z,1016.99
2019-03-30T10:52:18.619Z,1016.98
2019-03-30T10:53:18.607Z,1017.05
2019-03-30T10:54:18.606Z,1017.15
2019-03-30T10:55:18.583Z,1017.14
2019-03-30T10:56:18.592Z,1017.17
2019-03-30T10:57:18.608Z,1017.16
2019-03-30T10:58:18.589Z,1017.16
2019-03-30T10:59:18.546Z,1017.14
2019-03-30T11:00:18.572Z,1017.14
2019-03-30T11:01:18.561Z,1017.12
2019-03-30T11:02:18.525Z,1017.10
2019-03-30T11:03:18.568Z,1017.12
2019-03-30T11:04:18.563Z,1017.12
2019-03-30T11:05:18.518Z,1017.14
2019-03-30T11:06:18.516Z,1017.09
2019-03-30T11:07:18.601Z,1017.02
2019-03-30T11:08:18.511Z,1017.04
2019-03-30T11:09:18.521Z,1016.99
2019-03-30T11:10:18.452Z,1016.91
2019-03-30T11:11:18.454Z,1017.05
2019-03-30T11:12:18.445Z,1017.01
2019-03-30T11:13:18.408Z,1017.03
2019-03-30T11:14:18.399Z,1016.96
2019-03-30T11:15:18.389Z,1016.91
2019-03-30T11:16:18.390Z,1016.95
2019-03-30T11:17:19.514Z,1016.90
2019-03-30T11:18:18.363Z,1016.88
2019-03-30T11:19:18.368Z,1016.93
2019-03-30T11:20:18.347Z,1016.97
2019-03-30T11:21:18.353Z,1016.89
2019-03-30T11:22:18.316Z,1016.94
2019-03-30T11:23:18.319Z,1016.91
2019-03-30T11:24:18.312Z,1016.84
2019-03-30T11:25:18.292Z,1016.88
2019-03-30T11:26:18.321Z,1016.87
2019-03-30T11:27:18.347Z,1016.81
2019-03-30T11:28:18.269Z,1016.85
2019-03-30T11:29:18.253Z,1016.86
2019-03-30T11:30:18.256Z,1016.85
2019-03-30T11:31:18.280Z,1016.87
2019-03-30T11:32:18.229Z,1016.87
2019-03-30T11:33:18.219Z,1016.86
2019-03-30T11:34:18.206Z,1016.84
2019-03-30T11:35:18.201Z,1016.84
2019-03-30T11:36:18.815Z,1016.80
2019-03-30T11:37:18.194Z,1016.75
2019-03-30T11:38:18.169Z,1016.74
2019-03-30T11:39:18.157Z,1016.68
2019-03-30T11:40:18.162Z,1016.64
2019-03-30T11:41:18.136Z,1016.62
2019-03-30T11:42:18.152Z,1016.60
2019-03-30T11:43:18.119Z,1016.54
2019-03-30T11:44:18.105Z,1016.56
2019-03-30T11:45:18.101Z,1016.57
2019-03-30T11:46:18.093Z,1016.53
2019-03-30T11:47:18.142Z,1016.53
2019-03-30T11:48:18.071Z,1016.48
2019-03-30T11:49:18.141Z,1016.47
2019-03-30T11:50:18.051Z,1016.51
2019-03-30T11:51:18.047Z,1016.48
2019-03-30T11:52:18.065Z,1016.41
2019-03-30T11:53:18.024Z,1016.37
2019-03-30T11:54:18.025Z,1016.42
2019-03-30T11:55:22.178Z,1016.33
2019-03-30T11:56:18.013Z,1016.32
2019-03-30T11:57:17.979Z,1016.28
2019-03-30T11:58:18.025Z,1016.25
2019-03-30T11:59:17.983Z,1016.22
2019-03-30T12:00:17.963Z,1016.16
2019-03-30T12:01:17.948Z,1016.13
2019-03-30T12:02:27.775Z,1016.15
2019-03-30T12:03:18.957Z,1016.11
2019-03-30T12:04:17.918Z,1016.14
2019-03-30T12:05:17.901Z,1016.19